sensor_id;sensor_type;location;lat;lon;timestamp;pressure;altitude;pressure_sealevel;temperature;humidity
13581;BME280;6861;46.170;7.222;2023-04-07T00:02:17;96009.41;;;12.60;29.24
13581;BME280;6861;46.170;7.222;2023-04-07T00:04:46;96002.31;;;12.60;29.90
13581;BME280;6861;46.170;7.222;2023-04-07T00:07:14;95997.34;;;12.59;29.13
13581;BME280;6861;46.170;7.222;2023-04-07T00:09:42;95991.56;;;12.62;30.07
13581;BME280;6861;46.170;7.222;2023-04-07T00:12:10;95995.47;;;12.64;29.55
13581;BME280;6861;46.170;7.222;2023-04-07T00:14:40;95999.16;;;12.63;30.09
13581;BME280;6861;46.170;7.222;2023-04-07T00:17:08;96001.50;;;12.65;29.75
13581;BME280;6861;46.170;7.222;2023-04-07T00:19:37;96006.75;;;12.65;29.34
13581;BME280;6861;46.170;7.222;2023-04-07T00:22:05;96002.06;;;12.62;29.35
13581;BME280;6861;46.170;7.222;2023-04-07T00:24:33;96006.25;;;12.63;30.29
13581;BME280;6861;46.170;7.222;2023-04-07T00:27:01;96009.41;;;12.60;30.26
13581;BME280;6861;46.170;7.222;2023-04-07T00:29:29;96006.78;;;12.60;29.46
13581;BME280;6861;46.170;7.222;2023-04-07T00:31:59;95993.66;;;12.60;29.66
13581;BME280;6861;46.170;7.222;2023-04-07T00:34:27;95995.78;;;12.58;29.58
13581;BME280;6861;46.170;7.222;2023-04-07T00:36:55;95988.41;;;12.60;30.69
13581;BME280;6861;46.170;7.222;2023-04-07T00:39:24;95992.16;;;12.54;30.92
13581;BME280;6861;46.170;7.222;2023-04-07T00:41:53;95985.38;;;12.47;30.84
13581;BME280;6861;46.170;7.222;2023-04-07T00:44:22;95983.81;;;12.46;31.12
13581;BME280;6861;46.170;7.222;2023-04-07T00:46:50;95978.63;;;12.36;31.65
13581;BME280;6861;46.170;7.222;2023-04-07T00:49:20;95968.75;;;12.28;31.69
13581;BME280;6861;46.170;7.222;2023-04-07T00:51:48;95969.78;;;12.27;31.35
13581;BME280;6861;46.170;7.222;2023-04-07T00:54:17;95976.59;;;12.28;31.82
13581;BME280;6861;46.170;7.222;2023-04-07T00:56:45;95964.00;;;12.30;31.34
13581;BME280;6861;46.170;7.222;2023-04-07T00:59:13;95971.31;;;12.33;31.23
13581;BME280;6861;46.170;7.222;2023-04-07T01:01:45;95959.75;;;12.34;31.76
13581;BME280;6861;46.170;7.222;2023-04-07T01:04:21;95954.53;;;12.34;31.09
13581;BME280;6861;46.170;7.222;2023-04-07T01:06:57;95950.34;;;12.33;31.30
13581;BME280;6861;46.170;7.222;2023-04-07T01:09:31;95950.38;;;12.28;31.64
13581;BME280;6861;46.170;7.222;2023-04-07T01:12:06;95942.00;;;12.26;31.60
13581;BME280;6861;46.170;7.222;2023-04-07T01:14:41;95942.00;;;12.26;31.37
13581;BME280;6861;46.170;7.222;2023-04-07T01:17:12;95944.34;;;12.28;31.82
13581;BME280;6861;46.170;7.222;2023-04-07T01:19:46;95945.63;;;12.30;31.98
13581;BME280;6861;46.170;7.222;2023-04-07T01:22:32;95936.72;;;12.31;31.99
13581;BME280;6861;46.170;7.222;2023-04-07T01:25:25;95933.84;;;12.28;31.55
13581;BME280;6861;46.170;7.222;2023-04-07T01:28:08;95932.06;;;12.23;31.92
13581;BME280;6861;46.170;7.222;2023-04-07T01:30:40;95927.34;;;12.20;31.87
13581;BME280;6861;46.170;7.222;2023-04-07T01:33:11;95922.66;;;12.17;31.58
13581;BME280;6861;46.170;7.222;2023-04-07T01:35:41;95927.97;;;12.12;32.22
13581;BME280;6861;46.170;7.222;2023-04-07T01:38:12;95922.75;;;12.07;31.87
13581;BME280;6861;46.170;7.222;2023-04-07T01:40:41;95921.50;;;11.99;32.36
13581;BME280;6861;46.170;7.222;2023-04-07T01:43:10;95923.34;;;11.99;32.69
13581;BME280;6861;46.170;7.222;2023-04-07T01:45:41;95926.53;;;11.96;32.61
13581;BME280;6861;46.170;7.222;2023-04-07T01:48:10;95923.63;;;11.97;32.40
13581;BME280;6861;46.170;7.222;2023-04-07T01:50:39;95920.22;;;11.97;32.58
13581;BME280;6861;46.170;7.222;2023-04-07T01:53:07;95919.94;;;11.98;32.84
13581;BME280;6861;46.170;7.222;2023-04-07T01:55:36;95917.31;;;11.98;32.27
13581;BME280;6861;46.170;7.222;2023-04-07T01:58:05;95912.34;;;11.97;32.92
13581;BME280;6861;46.170;7.222;2023-04-07T02:00:33;95911.81;;;12.00;32.49
13581;BME280;6861;46.170;7.222;2023-04-07T02:03:08;95905.00;;;11.99;32.68
13581;BME280;6861;46.170;7.222;2023-04-07T02:05:39;95901.88;;;11.97;33.01
13581;BME280;6861;46.170;7.222;2023-04-07T02:08:07;95911.88;;;11.90;33.57
13581;BME280;6861;46.170;7.222;2023-04-07T02:10:38;95905.34;;;11.87;33.59
13581;BME280;6861;46.170;7.222;2023-04-07T02:13:07;95906.13;;;11.88;33.10
13581;BME280;6861;46.170;7.222;2023-04-07T02:15:38;95909.03;;;11.86;33.53
13581;BME280;6861;46.170;7.222;2023-04-07T02:18:09;95903.00;;;11.86;33.79
13581;BME280;6861;46.170;7.222;2023-04-07T02:20:39;95898.81;;;11.85;33.66
13581;BME280;6861;46.170;7.222;2023-04-07T02:23:09;95897.25;;;11.84;33.38
13581;BME280;6861;46.170;7.222;2023-04-07T02:25:37;95897.25;;;11.84;33.98
13581;BME280;6861;46.170;7.222;2023-04-07T02:28:05;95888.88;;;11.81;33.66
13581;BME280;6861;46.170;7.222;2023-04-07T02:30:34;95890.72;;;11.76;34.44
13581;BME280;6861;46.170;7.222;2023-04-07T02:33:02;95883.66;;;11.71;34.44
13581;BME280;6861;46.170;7.222;2023-04-07T02:35:32;95884.22;;;11.68;34.26
13581;BME280;6861;46.170;7.222;2023-04-07T02:38:00;95880.06;;;11.62;33.95
13581;BME280;6861;46.170;7.222;2023-04-07T02:40:29;95879.03;;;11.58;34.04
13581;BME280;6861;46.170;7.222;2023-04-07T02:42:57;95869.09;;;11.55;34.14
13581;BME280;6861;46.170;7.222;2023-04-07T02:45:26;95871.75;;;11.50;34.27
13581;BME280;6861;46.170;7.222;2023-04-07T02:47:54;95876.47;;;11.48;34.31
13581;BME280;6861;46.170;7.222;2023-04-07T02:50:22;95869.16;;;11.45;33.83
13581;BME280;6861;46.170;7.222;2023-04-07T02:52:53;95876.50;;;11.43;34.09
13581;BME280;6861;46.170;7.222;2023-04-07T02:55:21;95868.16;;;11.41;34.33
13581;BME280;6861;46.170;7.222;2023-04-07T02:57:49;95861.38;;;11.35;34.67
13581;BME280;6861;46.170;7.222;2023-04-07T03:00:17;95854.88;;;11.27;34.91
13581;BME280;6861;46.170;7.222;2023-04-07T03:02:46;95851.00;;;11.20;35.30
13581;BME280;6861;46.170;7.222;2023-04-07T03:05:14;95849.47;;;11.13;34.99
13581;BME280;6861;46.170;7.222;2023-04-07T03:07:42;95852.13;;;11.08;35.17
13581;BME280;6861;46.170;7.222;2023-04-07T03:10:12;95844.81;;;11.05;34.94
13581;BME280;6861;46.170;7.222;2023-04-07T03:12:40;95847.41;;;11.05;34.69
13581;BME280;6861;46.170;7.222;2023-04-07T03:15:09;95842.19;;;11.05;34.90
13581;BME280;6861;46.170;7.222;2023-04-07T03:17:37;95844.81;;;11.05;34.58
13581;BME280;6861;46.170;7.222;2023-04-07T03:20:06;95845.88;;;10.99;35.06
13581;BME280;6861;46.170;7.222;2023-04-07T03:22:35;95840.69;;;10.89;35.10
13581;BME280;6861;46.170;7.222;2023-04-07T03:25:04;95842.28;;;10.80;34.99
13581;BME280;6861;46.170;7.222;2023-04-07T03:27:33;95840.25;;;10.72;35.43
13581;BME280;6861;46.170;7.222;2023-04-07T03:30:02;95839.75;;;10.65;35.50
13581;BME280;6861;46.170;7.222;2023-04-07T03:32:30;95836.34;;;10.59;35.65
13581;BME280;6861;46.170;7.222;2023-04-07T03:34:58;95826.97;;;10.53;36.19
13581;BME280;6861;46.170;7.222;2023-04-07T03:37:27;95827.50;;;10.50;35.88
13581;BME280;6861;46.170;7.222;2023-04-07T03:39:55;95819.91;;;10.48;36.31
13581;BME280;6861;46.170;7.222;2023-04-07T03:42:23;95818.06;;;10.49;36.13
13581;BME280;6861;46.170;7.222;2023-04-07T03:44:53;95812.06;;;10.48;36.13
13581;BME280;6861;46.170;7.222;2023-04-07T03:47:21;95819.91;;;10.48;36.10
13581;BME280;6861;46.170;7.222;2023-04-07T03:49:49;95819.94;;;10.43;36.03
13581;BME280;6861;46.170;7.222;2023-04-07T03:52:18;95819.19;;;10.38;36.23
13581;BME280;6861;46.170;7.222;2023-04-07T03:54:46;95815.28;;;10.35;36.27
13581;BME280;6861;46.170;7.222;2023-04-07T03:57:14;95800.91;;;10.33;36.51
13581;BME280;6861;46.170;7.222;2023-04-07T03:59:42;95805.06;;;10.34;36.81
13581;BME280;6861;46.170;7.222;2023-04-07T04:02:12;95800.66;;;10.29;37.08
13581;BME280;6861;46.170;7.222;2023-04-07T04:04:40;95794.91;;;10.22;37.17
13581;BME280;6861;46.170;7.222;2023-04-07T04:07:09;95784.69;;;10.15;37.12
13581;BME280;6861;46.170;7.222;2023-04-07T04:09:37;95787.34;;;10.10;37.00
13581;BME280;6861;46.170;7.222;2023-04-07T04:12:05;95779.75;;;10.09;37.05
13581;BME280;6861;46.170;7.222;2023-04-07T04:14:34;95781.84;;;10.07;36.82
13581;BME280;6861;46.170;7.222;2023-04-07T04:17:02;95777.69;;;10.01;36.91
13581;BME280;6861;46.170;7.222;2023-04-07T04:19:32;95778.72;;;9.95;36.53
13581;BME280;6861;46.170;7.222;2023-04-07T04:22:01;95783.97;;;9.90;37.11
13581;BME280;6861;46.170;7.222;2023-04-07T04:24:29;95779.53;;;9.85;36.61
13581;BME280;6861;46.170;7.222;2023-04-07T04:26:57;95782.69;;;9.82;36.77
13581;BME280;6861;46.170;7.222;2023-04-07T04:29:25;95783.97;;;9.79;37.08
13581;BME280;6861;46.170;7.222;2023-04-07T04:31:53;95770.16;;;9.74;36.99
13581;BME280;6861;46.170;7.222;2023-04-07T04:34:22;95767.78;;;9.67;36.94
13581;BME280;6861;46.170;7.222;2023-04-07T04:36:51;95764.94;;;9.64;37.50
13581;BME280;6861;46.170;7.222;2023-04-07T04:39:20;95768.31;;;9.64;37.63
13581;BME280;6861;46.170;7.222;2023-04-07T04:41:48;95770.94;;;9.64;37.77
13581;BME280;6861;46.170;7.222;2023-04-07T04:44:16;95771.19;;;9.58;37.65
13581;BME280;6861;46.170;7.222;2023-04-07T04:46:44;95759.47;;;9.45;38.66
13581;BME280;6861;46.170;7.222;2023-04-07T04:49:13;95750.09;;;9.34;38.98
13581;BME280;6861;46.170;7.222;2023-04-07T04:51:41;95746.16;;;9.26;38.49
13581;BME280;6861;46.170;7.222;2023-04-07T04:54:11;95741.19;;;9.25;38.61
13581;BME280;6861;46.170;7.222;2023-04-07T04:56:39;95752.44;;;9.30;38.83
13581;BME280;6861;46.170;7.222;2023-04-07T04:59:08;95758.97;;;9.33;38.35
13581;BME280;6861;46.170;7.222;2023-04-07T05:01:36;95757.13;;;9.33;39.14
13581;BME280;6861;46.170;7.222;2023-04-07T05:04:05;95756.34;;;9.33;38.83
13581;BME280;6861;46.170;7.222;2023-04-07T05:06:35;95753.22;;;9.31;38.86
13581;BME280;6861;46.170;7.222;2023-04-07T05:09:03;95754.25;;;9.35;39.27
13581;BME280;6861;46.170;7.222;2023-04-07T05:11:33;95756.34;;;9.48;39.44
13581;BME280;6861;46.170;7.222;2023-04-07T05:14:01;95759.44;;;9.60;39.23
13581;BME280;6861;46.170;7.222;2023-04-07T05:16:29;95753.16;;;9.71;39.35
13581;BME280;6861;46.170;7.222;2023-04-07T05:18:57;95746.63;;;9.79;38.66
13581;BME280;6861;46.170;7.222;2023-04-07T05:21:26;95743.72;;;9.85;38.83
13581;BME280;6861;46.170;7.222;2023-04-07T05:23:54;95737.72;;;9.90;39.00
13581;BME280;6861;46.170;7.222;2023-04-07T05:26:22;95743.19;;;9.94;38.61
13581;BME280;6861;46.170;7.222;2023-04-07T05:28:52;95738.72;;;9.99;38.79
13581;BME280;6861;46.170;7.222;2023-04-07T05:31:20;95734.53;;;10.08;38.90
13581;BME280;6861;46.170;7.222;2023-04-07T05:33:48;95736.31;;;10.18;39.05
13581;BME280;6861;46.170;7.222;2023-04-07T05:36:18;95733.19;;;10.26;39.18
13581;BME280;6861;46.170;7.222;2023-04-07T05:38:46;95737.34;;;10.32;39.26
13581;BME280;6861;46.170;7.222;2023-04-07T05:41:14;95732.63;;;10.39;39.15
13581;BME280;6861;46.170;7.222;2023-04-07T05:43:42;95733.06;;;10.46;39.41
13581;BME280;6861;46.170;7.222;2023-04-07T05:46:12;95732.56;;;10.44;39.52
13581;BME280;6861;46.170;7.222;2023-04-07T05:48:40;95730.47;;;10.41;39.45
13581;BME280;6861;46.170;7.222;2023-04-07T05:51:08;95739.63;;;10.44;39.53
13581;BME280;6861;46.170;7.222;2023-04-07T05:53:37;95739.91;;;10.42;39.65
13581;BME280;6861;46.170;7.222;2023-04-07T05:56:05;95735.19;;;10.44;39.25
13581;BME280;6861;46.170;7.222;2023-04-07T05:58:34;95748.25;;;10.44;39.56
13581;BME280;6861;46.170;7.222;2023-04-07T06:01:02;95760.81;;;10.42;39.86
13581;BME280;6861;46.170;7.222;2023-04-07T06:03:31;95782.53;;;10.43;40.07
13581;BME280;6861;46.170;7.222;2023-04-07T06:06:00;95793.81;;;10.38;40.18
13581;BME280;6861;46.170;7.222;2023-04-07T06:08:28;95799.34;;;10.22;40.53
13581;BME280;6861;46.170;7.222;2023-04-07T06:10:56;95802.78;;;10.02;41.84
13581;BME280;6861;46.170;7.222;2023-04-07T06:13:24;95819.78;;;9.74;42.77
13581;BME280;6861;46.170;7.222;2023-04-07T06:15:53;95827.34;;;9.55;43.15
13581;BME280;6861;46.170;7.222;2023-04-07T06:18:22;95838.09;;;9.43;43.69
13581;BME280;6861;46.170;7.222;2023-04-07T06:20:52;95840.16;;;9.26;43.22
13581;BME280;6861;46.170;7.222;2023-04-07T06:23:20;95860.75;;;9.12;43.89
13581;BME280;6861;46.170;7.222;2023-04-07T06:25:48;95857.59;;;9.05;43.93
13581;BME280;6861;46.170;7.222;2023-04-07T06:28:18;95851.84;;;9.03;42.74
13581;BME280;6861;46.170;7.222;2023-04-07T06:30:47;95857.34;;;9.07;42.91
13581;BME280;6861;46.170;7.222;2023-04-07T06:33:16;95864.66;;;9.15;42.40
13581;BME280;6861;46.170;7.222;2023-04-07T06:35:45;95869.13;;;9.19;42.20
13581;BME280;6861;46.170;7.222;2023-04-07T06:38:15;95873.28;;;9.20;42.29
13581;BME280;6861;46.170;7.222;2023-04-07T06:40:43;95887.94;;;9.27;41.66
13581;BME280;6861;46.170;7.222;2023-04-07T06:43:11;95890.81;;;9.35;41.21
13581;BME280;6861;46.170;7.222;2023-04-07T06:45:40;95882.22;;;9.45;41.14
13581;BME280;6861;46.170;7.222;2023-04-07T06:48:08;95877.28;;;9.48;41.39
13581;BME280;6861;46.170;7.222;2023-04-07T06:50:37;95890.03;;;9.55;41.79
13581;BME280;6861;46.170;7.222;2023-04-07T06:53:05;95905.75;;;9.65;41.33
13581;BME280;6861;46.170;7.222;2023-04-07T06:55:34;95906.25;;;9.72;42.05
13581;BME280;6861;46.170;7.222;2023-04-07T06:58:03;95920.13;;;9.78;42.65
13581;BME280;6861;46.170;7.222;2023-04-07T07:00:31;95919.59;;;9.86;42.99
13581;BME280;6861;46.170;7.222;2023-04-07T07:02:59;95940.78;;;9.95;43.32
13581;BME280;6861;46.170;7.222;2023-04-07T07:05:27;95935.56;;;10.00;43.57
13581;BME280;6861;46.170;7.222;2023-04-07T07:07:56;95943.66;;;10.03;43.72
13581;BME280;6861;46.170;7.222;2023-04-07T07:10:24;95941.84;;;10.04;44.05
13581;BME280;6861;46.170;7.222;2023-04-07T07:12:54;95945.22;;;10.04;44.84
13581;BME280;6861;46.170;7.222;2023-04-07T07:15:22;95944.44;;;10.04;45.39
13581;BME280;6861;46.170;7.222;2023-04-07T07:17:50;95937.66;;;10.03;45.81
13581;BME280;6861;46.170;7.222;2023-04-07T07:20:19;95937.91;;;9.96;47.13
13581;BME280;6861;46.170;7.222;2023-04-07T07:22:49;95934.75;;;9.89;47.37
13581;BME280;6861;46.170;7.222;2023-04-07T07:25:17;95934.78;;;9.94;47.21
13581;BME280;6861;46.170;7.222;2023-04-07T07:27:45;95940.00;;;10.04;47.01
13581;BME280;6861;46.170;7.222;2023-04-07T07:30:19;95938.69;;;10.12;47.02
13581;BME280;6861;46.170;7.222;2023-04-07T07:32:48;95936.63;;;10.29;46.79
13581;BME280;6861;46.170;7.222;2023-04-07T07:35:16;95940.25;;;10.48;46.69
13581;BME280;6861;46.170;7.222;2023-04-07T07:37:44;95938.13;;;10.66;46.26
13581;BME280;6861;46.170;7.222;2023-04-07T07:40:13;95948.03;;;10.84;46.45
13581;BME280;6861;46.170;7.222;2023-04-07T07:42:41;95944.84;;;10.97;46.34
13581;BME280;6861;46.170;7.222;2023-04-07T07:45:09;95952.13;;;11.10;45.92
13581;BME280;6861;46.170;7.222;2023-04-07T07:47:41;95954.19;;;11.19;45.43
13581;BME280;6861;46.170;7.222;2023-04-07T07:50:09;95947.38;;;11.23;45.62
13581;BME280;6861;46.170;7.222;2023-04-07T07:52:38;95967.50;;;11.27;45.83
13581;BME280;6861;46.170;7.222;2023-04-07T07:55:08;95959.94;;;11.26;45.34
13581;BME280;6861;46.170;7.222;2023-04-07T07:57:36;95957.34;;;11.21;45.96
13581;BME280;6861;46.170;7.222;2023-04-07T08:00:07;95976.47;;;11.16;46.21
13581;BME280;6861;46.170;7.222;2023-04-07T08:02:35;95977.28;;;11.06;46.52
13581;BME280;6861;46.170;7.222;2023-04-07T08:05:07;95979.41;;;10.94;46.32
13581;BME280;6861;46.170;7.222;2023-04-07T08:07:35;95982.56;;;10.86;46.56
13581;BME280;6861;46.170;7.222;2023-04-07T08:10:04;95988.34;;;10.78;47.15
13581;BME280;6861;46.170;7.222;2023-04-07T08:12:32;95985.25;;;10.50;47.38
13581;BME280;6861;46.170;7.222;2023-04-07T08:15:00;95997.31;;;10.31;47.90
13581;BME280;6861;46.170;7.222;2023-04-07T08:17:29;95995.19;;;10.13;48.71
13581;BME280;6861;46.170;7.222;2023-04-07T08:19:57;96013.44;;;9.98;49.20
13581;BME280;6861;46.170;7.222;2023-04-07T08:22:27;96012.91;;;9.91;49.35
13581;BME280;6861;46.170;7.222;2023-04-07T08:24:55;96007.16;;;9.89;48.97
13581;BME280;6861;46.170;7.222;2023-04-07T08:27:24;96011.88;;;9.86;49.54
13581;BME280;6861;46.170;7.222;2023-04-07T08:29:58;96010.03;;;9.82;49.86
13581;BME280;6861;46.170;7.222;2023-04-07T08:32:33;96020.19;;;9.78;49.97
13581;BME280;6861;46.170;7.222;2023-04-07T08:35:02;96012.09;;;9.80;49.03
13581;BME280;6861;46.170;7.222;2023-04-07T08:37:33;96001.91;;;9.78;49.67
13581;BME280;6861;46.170;7.222;2023-04-07T08:40:02;96005.25;;;9.59;50.03
13581;BME280;6861;46.170;7.222;2023-04-07T08:42:32;96009.19;;;9.51;49.85
13581;BME280;6861;46.170;7.222;2023-04-07T08:45:02;96017.00;;;9.56;49.67
13581;BME280;6861;46.170;7.222;2023-04-07T08:47:32;96026.44;;;9.67;49.90
13581;BME280;6861;46.170;7.222;2023-04-07T08:50:02;96023.09;;;9.82;49.32
13581;BME280;6861;46.170;7.222;2023-04-07T08:52:34;96027.53;;;9.86;49.81
13581;BME280;6861;46.170;7.222;2023-04-07T08:55:08;96027.56;;;10.02;49.68
13581;BME280;6861;46.170;7.222;2023-04-07T08:57:36;96026.03;;;10.11;49.89
13581;BME280;6861;46.170;7.222;2023-04-07T09:00:06;96031.78;;;10.08;49.89
13581;BME280;6861;46.170;7.222;2023-04-07T09:02:36;96026.00;;;9.96;50.10
13581;BME280;6861;46.170;7.222;2023-04-07T09:05:07;96016.31;;;9.91;50.01
13581;BME280;6861;46.170;7.222;2023-04-07T09:07:38;96021.81;;;10.00;50.15
13581;BME280;6861;46.170;7.222;2023-04-07T09:10:09;96016.66;;;10.20;49.96
13581;BME280;6861;46.170;7.222;2023-04-07T09:12:37;96014.03;;;10.40;49.39
13581;BME280;6861;46.170;7.222;2023-04-07T09:15:09;96008.53;;;10.47;49.48
13581;BME280;6861;46.170;7.222;2023-04-07T09:17:37;96014.00;;;10.66;49.04
13581;BME280;6861;46.170;7.222;2023-04-07T09:20:06;96005.59;;;10.94;48.53
13581;BME280;6861;46.170;7.222;2023-04-07T09:22:41;95998.97;;;11.22;48.16
13581;BME280;6861;46.170;7.222;2023-04-07T09:25:13;95993.91;;;11.41;47.87
13581;BME280;6861;46.170;7.222;2023-04-07T09:27:56;95981.78;;;12.38;46.56
13581;BME280;6861;46.170;7.222;2023-04-07T09:30:26;95984.47;;;14.79;43.24
13581;BME280;6861;46.170;7.222;2023-04-07T09:32:55;95977.13;;;16.53;40.40
13581;BME280;6861;46.170;7.222;2023-04-07T09:35:24;95982.59;;;17.66;39.25
13581;BME280;6861;46.170;7.222;2023-04-07T09:38:02;95975.69;;;18.86;37.33
13581;BME280;6861;46.170;7.222;2023-04-07T09:40:31;95972.13;;;18.74;37.65
13581;BME280;6861;46.170;7.222;2023-04-07T09:43:01;95981.22;;;18.21;38.27
13581;BME280;6861;46.170;7.222;2023-04-07T09:45:30;95983.09;;;17.77;39.05
13581;BME280;6861;46.170;7.222;2023-04-07T09:48:06;95981.81;;;17.09;38.84
13581;BME280;6861;46.170;7.222;2023-04-07T09:50:37;95994.53;;;16.54;39.28
13581;BME280;6861;46.170;7.222;2023-04-07T09:53:08;95989.53;;;16.21;39.63
13581;BME280;6861;46.170;7.222;2023-04-07T09:55:38;95984.31;;;16.83;39.17
13581;BME280;6861;46.170;7.222;2023-04-07T09:58:08;95980.94;;;17.96;37.14
13581;BME280;6861;46.170;7.222;2023-04-07T10:00:39;95974.50;;;20.14;34.68
13581;BME280;6861;46.170;7.222;2023-04-07T10:03:08;95979.78;;;22.26;31.95
13581;BME280;6861;46.170;7.222;2023-04-07T10:05:37;95971.38;;;23.46;30.06
13581;BME280;6861;46.170;7.222;2023-04-07T10:08:08;95965.31;;;25.49;27.44
13581;BME280;6861;46.170;7.222;2023-04-07T10:10:40;95964.63;;;27.75;25.31
13581;BME280;6861;46.170;7.222;2023-04-07T10:13:08;95961.34;;;26.56;25.55
13581;BME280;6861;46.170;7.222;2023-04-07T10:15:37;95964.38;;;24.70;27.70
13581;BME280;6861;46.170;7.222;2023-04-07T10:18:06;95968.34;;;22.69;29.61
13581;BME280;6861;46.170;7.222;2023-04-07T10:20:39;95957.81;;;21.16;31.31
13581;BME280;6861;46.170;7.222;2023-04-07T10:23:15;95959.72;;;20.04;32.18
13581;BME280;6861;46.170;7.222;2023-04-07T10:25:46;95961.91;;;19.02;33.58
13581;BME280;6861;46.170;7.222;2023-04-07T10:28:20;95951.75;;;19.33;32.98
13581;BME280;6861;46.170;7.222;2023-04-07T10:30:50;95961.16;;;19.60;33.45
13581;BME280;6861;46.170;7.222;2023-04-07T10:33:43;95950.75;;;19.46;33.73
13581;BME280;6861;46.170;7.222;2023-04-07T10:36:13;95951.34;;;19.22;33.40
13581;BME280;6861;46.170;7.222;2023-04-07T10:39:18;95952.53;;;19.33;33.96
13581;BME280;6861;46.170;7.222;2023-04-07T10:41:46;95951.09;;;18.60;33.99
13581;BME280;6861;46.170;7.222;2023-04-07T10:44:46;95955.91;;;17.46;35.05
13581;BME280;6861;46.170;7.222;2023-04-07T10:47:16;95953.47;;;16.48;36.70
13581;BME280;6861;46.170;7.222;2023-04-07T10:50:15;95954.38;;;15.76;37.80
13581;BME280;6861;46.170;7.222;2023-04-07T10:52:45;95953.63;;;15.48;38.31
13581;BME280;6861;46.170;7.222;2023-04-07T10:55:32;95953.06;;;15.37;38.60
13581;BME280;6861;46.170;7.222;2023-04-07T10:58:21;95942.72;;;15.41;38.58
13581;BME280;6861;46.170;7.222;2023-04-07T11:01:17;95951.81;;;15.85;38.34
13581;BME280;6861;46.170;7.222;2023-04-07T11:03:58;95938.34;;;16.31;37.71
13581;BME280;6861;46.170;7.222;2023-04-07T11:06:27;95938.50;;;16.34;37.11
13581;BME280;6861;46.170;7.222;2023-04-07T11:08:56;95939.34;;;16.21;37.65
13581;BME280;6861;46.170;7.222;2023-04-07T11:11:41;95943.25;;;16.24;37.79
13581;BME280;6861;46.170;7.222;2023-04-07T11:14:09;95932.28;;;16.30;37.60
13581;BME280;6861;46.170;7.222;2023-04-07T11:16:41;95932.88;;;16.27;37.85
13581;BME280;6861;46.170;7.222;2023-04-07T11:19:11;95943.69;;;16.17;38.10
13581;BME280;6861;46.170;7.222;2023-04-07T11:21:39;95934.78;;;15.91;38.35
13581;BME280;6861;46.170;7.222;2023-04-07T11:24:08;95945.97;;;15.74;38.70
13581;BME280;6861;46.170;7.222;2023-04-07T11:26:37;95945.72;;;15.48;39.28
13581;BME280;6861;46.170;7.222;2023-04-07T11:29:08;95947.22;;;15.27;39.87
13581;BME280;6861;46.170;7.222;2023-04-07T11:31:38;95956.97;;;15.13;39.93
13581;BME280;6861;46.170;7.222;2023-04-07T11:34:06;95950.16;;;14.98;40.60
13581;BME280;6861;46.170;7.222;2023-04-07T11:36:38;95940.56;;;14.88;40.07
13581;BME280;6861;46.170;7.222;2023-04-07T11:39:17;95949.16;;;14.80;40.65
13581;BME280;6861;46.170;7.222;2023-04-07T11:41:47;95945.84;;;14.88;40.78
13581;BME280;6861;46.170;7.222;2023-04-07T11:44:17;95945.66;;;14.85;41.06
13581;BME280;6861;46.170;7.222;2023-04-07T11:46:52;95939.78;;;14.74;41.47
13581;BME280;6861;46.170;7.222;2023-04-07T11:49:22;95947.81;;;14.69;41.54
13581;BME280;6861;46.170;7.222;2023-04-07T11:51:57;95942.72;;;14.59;41.79
13581;BME280;6861;46.170;7.222;2023-04-07T11:54:26;95943.88;;;14.53;41.55
13581;BME280;6861;46.170;7.222;2023-04-07T11:56:54;95943.91;;;14.34;42.33
13581;BME280;6861;46.170;7.222;2023-04-07T11:59:24;95947.69;;;14.09;42.29
13581;BME280;6861;46.170;7.222;2023-04-07T12:01:54;95941.50;;;13.86;42.75
13581;BME280;6861;46.170;7.222;2023-04-07T12:04:23;95941.44;;;13.72;43.77
13581;BME280;6861;46.170;7.222;2023-04-07T12:06:52;95946.19;;;13.70;43.38
13581;BME280;6861;46.170;7.222;2023-04-07T12:09:25;95946.97;;;13.71;43.27
13581;BME280;6861;46.170;7.222;2023-04-07T12:11:55;95954.28;;;13.55;44.04
13581;BME280;6861;46.170;7.222;2023-04-07T12:14:25;95946.25;;;13.47;44.64
13581;BME280;6861;46.170;7.222;2023-04-07T12:16:54;95940.69;;;13.48;44.10
13581;BME280;6861;46.170;7.222;2023-04-07T12:19:25;95948.25;;;13.55;44.24
13581;BME280;6861;46.170;7.222;2023-04-07T12:21:53;95943.69;;;13.60;45.19
13581;BME280;6861;46.170;7.222;2023-04-07T12:24:22;95948.09;;;13.65;45.31
13581;BME280;6861;46.170;7.222;2023-04-07T12:26:50;95944.91;;;13.68;44.59
13581;BME280;6861;46.170;7.222;2023-04-07T12:29:20;95944.84;;;13.73;44.45
13581;BME280;6861;46.170;7.222;2023-04-07T12:31:50;95944.78;;;13.78;44.97
13581;BME280;6861;46.170;7.222;2023-04-07T12:34:18;95940.91;;;13.89;44.87
13581;BME280;6861;46.170;7.222;2023-04-07T12:36:46;95933.75;;;14.08;44.78
13581;BME280;6861;46.170;7.222;2023-04-07T12:39:15;95936.28;;;14.32;44.12
13581;BME280;6861;46.170;7.222;2023-04-07T12:41:43;95938.41;;;14.49;44.57
13581;BME280;6861;46.170;7.222;2023-04-07T12:44:14;95937.47;;;14.72;44.41
13581;BME280;6861;46.170;7.222;2023-04-07T12:46:42;95933.56;;;14.97;43.94
13581;BME280;6861;46.170;7.222;2023-04-07T12:49:12;95935.69;;;15.23;42.95
13581;BME280;6861;46.170;7.222;2023-04-07T12:51:40;95939.00;;;15.42;43.11
13581;BME280;6861;46.170;7.222;2023-04-07T12:54:08;95934.91;;;15.36;42.54
13581;BME280;6861;46.170;7.222;2023-04-07T12:56:36;95939.41;;;15.22;42.54
13581;BME280;6861;46.170;7.222;2023-04-07T12:59:06;95937.38;;;15.19;42.62
13581;BME280;6861;46.170;7.222;2023-04-07T13:01:35;95935.88;;;15.26;42.20
13581;BME280;6861;46.170;7.222;2023-04-07T13:04:04;95935.31;;;15.29;42.35
13581;BME280;6861;46.170;7.222;2023-04-07T13:06:34;95922.59;;;15.45;42.41
13581;BME280;6861;46.170;7.222;2023-04-07T13:09:02;95915.31;;;15.64;42.20
13581;BME280;6861;46.170;7.222;2023-04-07T13:11:30;95920.78;;;15.68;42.05
13581;BME280;6861;46.170;7.222;2023-04-07T13:13:59;95913.81;;;15.36;41.62
13581;BME280;6861;46.170;7.222;2023-04-07T13:16:27;95909.84;;;14.97;41.89
13581;BME280;6861;46.170;7.222;2023-04-07T13:18:56;95914.72;;;14.90;42.71
13581;BME280;6861;46.170;7.222;2023-04-07T13:21:24;95898.81;;;14.95;42.88
13581;BME280;6861;46.170;7.222;2023-04-07T13:24:13;95899.41;;;14.92;42.95
13581;BME280;6861;46.170;7.222;2023-04-07T13:26:42;95897.84;;;14.91;42.83
13581;BME280;6861;46.170;7.222;2023-04-07T13:29:10;95899.59;;;14.96;42.79